Time;durP1;ratioP1;P1;durP2;ratioP2;P2;SDS_P1;SDS_P2;PMS_P1;PMS_P2;Temp;Humidity;BMP_temperature;BMP_pressure;BME280_temperature;BME280_humidity;BME280_pressure;Samples;Min_cycle;Max_cycle;Signal;HPM_P1;HPM_P2
2021/07/04 00:02:21;;;;;;;22.75;14.88;;;15.40;99.90;;;;;;6271300;22;20024;-88
2021/07/04 00:05:17;;;;;;;17.70;14.02;;;15.40;99.90;;;;;;6270972;22;20137;-87
2021/07/04 00:08:07;;;;;;;20.05;14.85;;;15.40;99.90;;;;;;6270428;22;20108;-88
2021/07/04 00:11:00;;;;;;;18.48;13.38;;;15.40;99.90;;;;;;6270256;22;20016;-89
2021/07/04 00:13:47;;;;;;;16.77;12.90;;;15.30;99.90;;;;;;6271709;22;20279;-88
2021/07/04 00:16:35;;;;;;;19.58;13.13;;;15.40;99.90;;;;;;6253552;22;20030;-87
2021/07/04 00:19:26;;;;;;;21.23;13.55;;;15.40;99.90;;;;;;6271774;22;20031;-88
2021/07/04 00:22:13;;;;;;;18.40;13.27;;;15.30;99.90;;;;;;6272885;22;20160;-90
2021/07/04 00:25:06;;;;;;;22.05;15.10;;;15.30;99.90;;;;;;6274222;22;20374;-87
2021/07/04 00:27:57;;;;;;;22.92;15.27;;;15.30;99.90;;;;;;6273034;22;20478;-88
2021/07/04 00:30:44;;;;;;;19.08;14.98;;;15.30;99.90;;;;;;6272821;22;20023;-88
2021/07/04 00:33:31;;;;;;;22.60;15.45;;;15.30;99.90;;;;;;6274216;22;20549;-89
2021/07/04 00:36:19;;;;;;;22.45;14.82;;;15.30;99.90;;;;;;6274006;22;20100;-87
2021/07/04 00:39:06;;;;;;;20.35;14.70;;;15.30;99.90;;;;;;6273304;22;20128;-88
2021/07/04 00:41:54;;;;;;;22.23;15.20;;;15.20;99.90;;;;;;6273485;22;20121;-89
2021/07/04 00:44:41;;;;;;;21.83;15.05;;;15.30;99.90;;;;;;6254311;22;20077;-89
2021/07/04 00:47:28;;;;;;;21.02;14.68;;;15.30;99.90;;;;;;6273709;22;20024;-89
2021/07/04 00:50:17;;;;;;;25.70;14.80;;;15.20;99.90;;;;;;6275912;22;20020;-88
2021/07/04 00:53:07;;;;;;;19.23;14.82;;;15.30;99.90;;;;;;6273544;22;20453;-88
2021/07/04 00:55:57;;;;;;;20.73;14.43;;;15.20;99.90;;;;;;6274606;22;20116;-89
2021/07/04 00:58:44;;;;;;;21.25;14.82;;;15.30;99.90;;;;;;6276311;22;20031;-89
2021/07/04 01:01:31;;;;;;;23.05;14.82;;;15.20;99.90;;;;;;6252815;22;20112;-89
2021/07/04 01:04:18;;;;;;;22.92;14.85;;;15.20;99.90;;;;;;6252245;22;20327;-90
2021/07/04 01:07:09;;;;;;;25.20;15.73;;;15.20;99.90;;;;;;6254283;22;20073;-89
2021/07/04 01:09:57;;;;;;;21.30;16.08;;;15.20;99.90;;;;;;6273305;22;20024;-88
2021/07/04 01:12:46;;;;;;;23.15;15.65;;;15.20;99.90;;;;;;6273362;22;20427;-89
2021/07/04 01:15:34;;;;;;;19.67;14.40;;;15.20;99.90;;;;;;6276134;22;20015;-89
2021/07/04 01:18:21;;;;;;;21.67;15.32;;;15.20;99.90;;;;;;6271526;22;20028;-88
2021/07/04 01:21:10;;;;;;;21.55;14.82;;;15.20;99.90;;;;;;6273203;22;20047;-90
2021/07/04 01:24:00;;;;;;;25.85;15.23;;;15.20;99.90;;;;;;6273634;22;20023;-89
2021/07/04 01:26:48;;;;;;;21.17;15.13;;;15.20;99.90;;;;;;6275730;22;20118;-88
2021/07/04 01:29:36;;;;;;;20.40;15.20;;;15.20;99.90;;;;;;6274203;22;20586;-88
2021/07/04 01:32:26;;;;;;;21.08;13.88;;;15.30;99.90;;;;;;6272034;22;20284;-89
2021/07/04 01:35:14;;;;;;;20.63;14.75;;;15.30;99.90;;;;;;6271941;22;20047;-88
2021/07/04 01:38:04;;;;;;;18.42;13.98;;;15.40;99.90;;;;;;6273638;22;20028;-88
2021/07/04 01:40:52;;;;;;;22.27;13.40;;;15.40;99.90;;;;;;6271084;22;20122;-91
2021/07/04 01:43:40;;;;;;;17.38;14.30;;;15.40;99.90;;;;;;6275827;22;20161;-91
2021/07/04 01:46:29;;;;;;;20.60;15.25;;;15.50;99.90;;;;;;6272292;22;20028;-88
2021/07/04 01:49:17;;;;;;;21.80;14.48;;;15.50;99.90;;;;;;6272045;22;20319;-90
2021/07/04 01:52:04;;;;;;;21.13;13.63;;;15.50;99.90;;;;;;6276287;22;20027;-90
2021/07/04 01:54:51;;;;;;;18.02;13.57;;;15.40;99.90;;;;;;6274122;22;20124;-90
2021/07/04 01:57:39;;;;;;;17.65;13.70;;;15.40;99.90;;;;;;6232035;22;20166;-89
2021/07/04 02:00:32;;;;;;;17.70;13.48;;;15.40;99.90;;;;;;6272442;22;20031;-89
2021/07/04 02:03:19;;;;;;;;;;;15.40;99.90;;;;;;6271696;22;20112;-89
2021/07/04 02:06:07;;;;;;;19.00;12.82;;;15.40;99.90;;;;;;6271217;22;19918;-89
2021/07/04 02:08:54;;;;;;;19.00;13.32;;;15.40;99.90;;;;;;6272362;22;20047;-90
2021/07/04 02:11:48;;;;;;;19.15;12.90;;;15.40;99.90;;;;;;6274047;22;20031;-89
2021/07/04 02:14:36;;;;;;;20.30;14.10;;;15.40;99.90;;;;;;6275749;22;20051;-90
2021/07/04 02:17:23;;;;;;;16.33;12.95;;;15.40;99.90;;;;;;6271469;22;20458;-89
2021/07/04 02:20:33;;;;;;;20.77;13.88;;;15.40;99.90;;;;;;6272309;22;20055;-89
2021/07/04 02:23:24;;;;;;;21.02;14.52;;;15.40;99.90;;;;;;6272498;22;20438;-91
2021/07/04 02:26:14;;;;;;;16.73;12.60;;;15.40;99.90;;;;;;6275385;22;20120;-90
2021/07/04 02:29:02;;;;;;;20.25;12.82;;;15.30;99.90;;;;;;6272062;22;20054;-89
2021/07/04 02:31:50;;;;;;;22.00;13.43;;;15.30;99.90;;;;;;6270673;22;20221;-90
2021/07/04 02:34:38;;;;;;;17.23;13.15;;;15.30;99.90;;;;;;6271733;22;20103;-87
2021/07/04 02:37:25;;;;;;;17.98;14.00;;;15.40;99.90;;;;;;6274093;22;20041;-90
2021/07/04 02:40:15;;;;;;;17.05;12.95;;;15.30;99.90;;;;;;6270821;22;20035;-89
2021/07/04 02:43:03;;;;;;;15.75;13.10;;;15.30;99.90;;;;;;6275599;22;20069;-91
2021/07/04 02:45:51;;;;;;;16.80;12.57;;;15.30;99.90;;;;;;6271672;22;20408;-89
2021/07/04 02:48:41;;;;;;;18.42;13.25;;;15.30;99.90;;;;;;6270463;22;20039;-88
2021/07/04 02:51:28;;;;;;;18.63;11.93;;;15.40;99.90;;;;;;6274158;22;20070;-89
2021/07/04 02:54:18;;;;;;;14.52;12.40;;;15.40;99.90;;;;;;6273228;22;20031;-88
2021/07/04 02:57:11;;;;;;;18.35;12.20;;;15.40;99.90;;;;;;6275671;22;20104;-90
2021/07/04 02:59:58;;;;;;;20.77;13.57;;;15.40;99.90;;;;;;6274076;22;20411;-89
2021/07/04 03:02:46;;;;;;;16.58;12.65;;;15.40;99.90;;;;;;6231934;22;20095;-90
2021/07/04 03:05:34;;;;;;;19.02;12.82;;;15.40;99.90;;;;;;6274154;22;20024;-90
2021/07/04 03:08:21;;;;;;;17.30;12.70;;;15.40;99.90;;;;;;6251722;22;20529;-89
2021/07/04 03:11:08;;;;;;;16.55;12.90;;;15.30;99.90;;;;;;6272765;22;20157;-90
2021/07/04 03:13:55;;;;;;;17.75;12.43;;;15.30;99.90;;;;;;6274815;22;20027;-90
2021/07/04 03:16:42;;;;;;;19.52;12.68;;;15.30;99.90;;;;;;6270384;22;20037;-89
2021/07/04 03:19:30;;;;;;;17.10;12.73;;;15.30;99.90;;;;;;6270979;22;20035;-89
2021/07/04 03:22:19;;;;;;;17.17;13.02;;;15.30;99.90;;;;;;6271613;22;20023;-92
2021/07/04 03:25:07;;;;;;;15.73;12.60;;;15.30;99.90;;;;;;6270546;22;20113;-92
2021/07/04 03:27:55;;;;;;;18.05;13.00;;;15.30;99.90;;;;;;6270765;22;20026;-91
2021/07/04 03:30:43;;;;;;;16.73;13.05;;;15.30;99.90;;;;;;6271277;22;20028;-91
2021/07/04 03:33:30;;;;;;;19.85;13.35;;;15.30;99.90;;;;;;6248983;22;20047;-90
2021/07/04 03:36:18;;;;;;;16.85;12.98;;;15.30;99.90;;;;;;6274654;22;20288;-91
2021/07/04 03:39:06;;;;;;;16.20;13.55;;;15.30;99.90;;;;;;6253528;22;20027;-90
2021/07/04 03:41:54;;;;;;;18.00;13.80;;;15.30;99.90;;;;;;6270377;22;20647;-91
2021/07/04 03:44:42;;;;;;;17.70;13.65;;;15.30;99.90;;;;;;6270542;22;20024;-91
2021/07/04 03:47:30;;;;;;;20.45;12.95;;;15.30;99.90;;;;;;6270774;22;20030;-89
2021/07/04 03:50:18;;;;;;;27.42;13.95;;;15.30;99.90;;;;;;6268306;22;20027;-89
2021/07/04 03:53:05;;;;;;;20.58;14.13;;;15.30;99.90;;;;;;6249663;22;20019;-92
2021/07/04 03:55:52;;;;;;;17.27;14.10;;;15.20;99.90;;;;;;6272048;22;20400;-90
2021/07/04 03:58:40;;;;;;;20.27;14.80;;;15.20;99.90;;;;;;6271135;22;20064;-91
2021/07/04 04:01:28;;;;;;;19.23;14.07;;;15.20;99.90;;;;;;6270216;22;20157;-90
2021/07/04 04:04:16;;;;;;;20.35;15.15;;;15.20;99.90;;;;;;6270638;22;20733;-90
2021/07/04 04:07:05;;;;;;;28.40;15.18;;;15.20;99.90;;;;;;6269267;22;20043;-92
2021/07/04 04:09:52;;;;;;;22.02;16.13;;;15.30;99.90;;;;;;6270457;22;20426;-89
2021/07/04 04:12:40;;;;;;;19.63;15.10;;;15.30;99.90;;;;;;6269860;22;20024;-91
2021/07/04 04:15:29;;;;;;;21.95;14.88;;;15.30;99.90;;;;;;6270558;22;20109;-89
2021/07/04 04:18:18;;;;;;;17.05;14.45;;;15.30;99.90;;;;;;6272412;22;20093;-91
2021/07/04 04:21:06;;;;;;;19.05;13.63;;;15.30;99.90;;;;;;6271142;22;20024;-91
2021/07/04 04:23:54;;;;;;;17.55;13.27;;;15.30;99.90;;;;;;6270656;22;20619;-90
2021/07/04 04:26:41;;;;;;;16.25;12.57;;;15.30;99.90;;;;;;6251686;22;20072;-90
2021/07/04 04:29:28;;;;;;;17.80;13.32;;;15.30;99.90;;;;;;6273421;22;20027;-91
2021/07/04 04:32:16;;;;;;;22.25;13.43;;;15.30;99.90;;;;;;6270116;22;20099;-91
2021/07/04 04:35:04;;;;;;;16.13;13.48;;;15.30;99.90;;;;;;6271078;22;20392;-90
2021/07/04 04:37:52;;;;;;;20.15;13.80;;;15.30;99.90;;;;;;6271437;22;20051;-90
2021/07/04 04:40:39;;;;;;;19.23;14.68;;;15.40;99.90;;;;;;6272646;22;20035;-87
2021/07/04 04:43:26;;;;;;;17.17;14.45;;;15.40;99.90;;;;;;6271001;22;20051;-90
2021/07/04 04:46:14;;;;;;;20.02;15.38;;;15.40;99.90;;;;;;6271806;22;20100;-90
2021/07/04 04:49:04;;;;;;;22.48;14.55;;;15.40;99.90;;;;;;6274117;22;20412;-87
2021/07/04 04:51:51;;;;;;;20.25;13.23;;;15.50;99.90;;;;;;6271413;22;20085;-86
2021/07/04 04:54:39;;;;;;;17.08;13.43;;;15.50;99.90;;;;;;6271857;22;20031;-86
2021/07/04 04:57:28;;;;;;;20.83;14.93;;;15.60;99.90;;;;;;6270274;22;20051;-87
2021/07/04 05:00:17;;;;;;;17.70;12.90;;;15.70;99.90;;;;;;6269315;22;20027;-87
2021/07/04 05:03:06;;;;;;;19.83;12.45;;;15.70;99.90;;;;;;6271316;22;20103;-86
2021/07/04 05:05:53;;;;;;;16.70;12.23;;;15.80;99.90;;;;;;6271188;22;20046;-87
2021/07/04 05:08:42;;;;;;;17.15;12.43;;;15.90;99.90;;;;;;6253308;22;20020;-86
2021/07/04 05:11:29;;;;;;;15.60;11.20;;;16.00;99.90;;;;;;6271965;22;20150;-87
2021/07/04 05:14:19;;;;;;;14.27;10.77;;;16.10;99.90;;;;;;6272274;22;20031;-87
2021/07/04 05:17:06;;;;;;;12.82;10.57;;;16.20;99.90;;;;;;6276275;22;20035;-87
2021/07/04 05:19:54;;;;;;;13.65;9.98;;;16.40;99.90;;;;;;6272557;22;20020;-87
2021/07/04 05:22:42;;;;;;;12.93;10.00;;;16.60;99.90;;;;;;6272686;22;20023;-88
2021/07/04 05:25:30;;;;;;;15.80;9.77;;;16.70;99.90;;;;;;6249036;22;20073;-86
2021/07/04 05:28:17;;;;;;;14.85;10.45;;;16.70;99.90;;;;;;6273655;22;20031;-88
2021/07/04 05:31:05;;;;;;;13.75;9.70;;;16.70;99.90;;;;;;6271029;22;20325;-87
2021/07/04 05:33:54;;;;;;;14.15;10.10;;;16.70;99.90;;;;;;6272471;22;20024;-88
2021/07/04 05:36:47;;;;;;;12.82;10.02;;;16.70;99.90;;;;;;6273121;22;20031;-87
2021/07/04 05:39:34;;;;;;;15.88;10.57;;;16.80;99.90;;;;;;6272146;22;20030;-88
2021/07/04 05:42:21;;;;;;;12.20;9.80;;;16.80;99.90;;;;;;6275754;22;20101;-91
2021/07/04 05:45:14;;;;;;;16.02;10.38;;;16.70;99.90;;;;;;6279978;22;20089;-92
2021/07/04 05:48:04;;;;;;;10.80;9.18;;;16.70;99.90;;;;;;6274945;22;20020;-92
2021/07/04 05:50:54;;;;;;;12.38;9.60;;;16.70;99.90;;;;;;6278408;22;20031;-91
2021/07/04 05:53:43;;;;;;;15.38;10.20;;;16.70;99.90;;;;;;6282767;22;20035;-93
2021/07/04 05:56:36;;;;;;;12.32;9.82;;;16.70;99.90;;;;;;6280015;22;20065;-92
2021/07/04 05:59:25;;;;;;;10.10;9.10;;;16.70;99.90;;;;;;6282080;22;20039;-92
2021/07/04 06:02:13;;;;;;;10.85;8.77;;;16.80;99.90;;;;;;6284281;22;20039;-91
2021/07/04 06:05:15;;;;;;;;;;;;;;;;;;;;;
2021/07/04 06:08:04;;;;;;;11.35;9.45;;;17.00;99.90;;;;;;6284987;22;20070;-92
2021/07/04 06:10:54;;;;;;;10.82;8.27;;;17.40;99.90;;;;;;6285228;22;20134;-91
2021/07/04 06:13:42;;;;;;;13.00;8.75;;;17.60;99.90;;;;;;6276184;22;20027;-91
2021/07/04 06:16:32;;;;;;;14.70;8.27;;;17.90;99.90;;;;;;6273622;22;20031;-92
2021/07/04 06:19:21;;;;;;;10.38;8.35;;;18.20;99.90;;;;;;6272708;22;20024;-91
2021/07/04 06:22:08;;;;;;;9.80;7.93;;;18.30;99.90;;;;;;6255193;22;20028;-90
2021/07/04 06:24:56;;;;;;;10.25;8.40;;;18.20;99.90;;;;;;6274307;22;20019;-90
2021/07/04 06:27:44;;;;;;;14.75;8.57;;;18.30;99.90;;;;;;6273353;22;20024;-92
2021/07/04 06:30:31;;;;;;;9.50;7.55;;;18.40;99.90;;;;;;6272156;22;20028;-89
2021/07/04 06:33:19;;;;;;;9.48;6.85;;;18.50;99.90;;;;;;6268781;22;20020;-91
2021/07/04 06:36:06;;;;;;;10.30;8.40;;;18.70;99.90;;;;;;6274088;22;20035;-90
2021/07/04 06:38:55;;;;;;;10.50;7.75;;;19.00;99.90;;;;;;6272581;22;20031;-88
2021/07/04 06:41:45;;;;;;;9.05;7.68;;;19.20;99.90;;;;;;6270151;22;20359;-90
2021/07/04 06:44:32;;;;;;;8.30;6.82;;;19.10;99.90;;;;;;6273410;22;20153;-89
2021/07/04 06:47:20;;;;;;;11.88;6.82;;;19.10;99.90;;;;;;6273207;22;20020;-89
2021/07/04 06:50:08;;;;;;;8.68;7.13;;;19.30;99.90;;;;;;6270940;22;20019;-88
2021/07/04 06:52:55;;;;;;;9.15;6.38;;;19.40;99.90;;;;;;6271941;22;20024;-90
2021/07/04 06:55:45;;;;;;;9.93;7.32;;;19.60;99.90;;;;;;6280831;22;20384;-92
2021/07/04 06:58:33;;;;;;;7.95;6.13;;;19.70;99.90;;;;;;6276044;22;20075;-90
2021/07/04 07:01:22;;;;;;;7.68;6.40;;;19.70;99.90;;;;;;6271004;22;20027;-92
2021/07/04 07:04:13;;;;;;;7.65;6.50;;;19.80;99.90;;;;;;6273954;22;20027;-92
2021/07/04 07:07:01;;;;;;;6.82;5.80;;;20.00;99.90;;;;;;6234618;22;20031;-92
2021/07/04 07:09:49;;;;;;;7.20;5.93;;;20.20;99.90;;;;;;6273837;22;20034;-94
2021/07/04 07:12:38;;;;;;;8.90;6.13;;;20.20;99.90;;;;;;6271623;22;20398;-91
2021/07/04 07:15:27;;;;;;;9.02;5.82;;;20.10;99.90;;;;;;6274474;22;20027;-92
2021/07/04 07:18:14;;;;;;;7.65;6.18;;;19.90;99.90;;;;;;6274988;22;20035;-91
2021/07/04 07:21:05;;;;;;;6.97;5.60;;;20.20;99.90;;;;;;6273172;22;20154;-92
2021/07/04 07:24:09;;;;;;;5.53;4.95;;;20.50;99.90;;;;;;6273274;22;20031;-94
2021/07/04 07:27:01;;;;;;;6.70;5.43;;;20.80;99.90;;;;;;6276166;22;20031;-91
2021/07/04 07:29:50;;;;;;;8.52;5.95;;;21.40;99.90;;;;;;6272091;22;20151;-88
2021/07/04 07:33:11;;;;;;;6.45;5.50;;;21.40;99.90;;;;;;6273012;22;20426;-90
2021/07/04 07:36:02;;;;;;;5.32;4.70;;;21.20;99.90;;;;;;6270929;22;20095;-92
2021/07/04 07:38:59;;;;;;;7.88;4.95;;;21.60;99.90;;;;;;6255411;22;20035;-92
2021/07/04 07:41:57;;;;;;;;;;;;;;;;;;;;;
2021/07/04 07:44:45;;;;;;;7.57;4.97;;;22.40;99.90;;;;;;6275223;22;20027;-92
2021/07/04 07:47:35;;;;;;;6.10;3.97;;;22.70;99.90;;;;;;6255683;22;20434;-92
2021/07/04 07:50:26;;;;;;;5.35;4.22;;;23.30;99.90;;;;;;6274460;22;20042;-91
2021/07/04 07:53:27;;;;;;;6.63;5.10;;;23.70;99.90;;;;;;6215633;23;20050;-92
2021/07/04 07:56:15;;;;;;;7.88;4.72;;;23.50;99.90;;;;;;6221367;23;20060;-93
2021/07/04 07:59:10;;;;;;;6.00;4.60;;;23.40;99.90;;;;;;6225624;23;20028;-90
2021/07/04 08:01:57;;;;;;;6.57;5.13;;;23.80;99.90;;;;;;6229394;23;20031;-92
2021/07/04 08:04:58;;;;;;;6.15;5.55;;;23.50;99.90;;;;;;6220644;23;20028;-90
2021/07/04 08:07:48;;;;;;;7.22;5.22;;;23.50;99.90;;;;;;6240873;23;20051;-91
2021/07/04 08:10:36;;;;;;;5.70;5.10;;;23.80;99.90;;;;;;6196123;23;20031;-91
2021/07/04 08:13:24;;;;;;;7.53;5.65;;;23.30;99.90;;;;;;6218948;23;20098;-90
2021/07/04 08:16:16;;;;;;;6.82;5.38;;;23.00;99.90;;;;;;6243467;22;20106;-93
2021/07/04 08:19:04;;;;;;;7.45;5.68;;;23.20;99.90;;;;;;6197519;23;20032;-92
2021/07/04 08:21:51;;;;;;;6.43;5.70;;;23.80;99.90;;;;;;6218024;23;20059;-92
2021/07/04 08:25:11;;;;;;;8.38;5.10;;;24.40;99.70;;;;;;6219878;23;20028;-92
2021/07/04 08:28:04;;;;;;;6.93;5.25;;;24.20;99.50;;;;;;6227795;22;20439;-92
2021/07/04 08:30:55;;;;;;;7.90;5.25;;;23.50;99.90;;;;;;6221826;23;20028;-92
2021/07/04 08:33:50;;;;;;;7.60;4.93;;;22.90;99.90;;;;;;6223737;23;20327;-92
2021/07/04 08:36:37;;;;;;;8.45;5.38;;;22.50;99.90;;;;;;6221753;23;20020;-92
2021/07/04 08:39:28;;;;;;;7.55;5.72;;;22.40;99.90;;;;;;6244202;23;20024;-92
2021/07/04 08:42:23;;;;;;;5.95;5.35;;;22.70;99.90;;;;;;6242772;23;20031;-92
2021/07/04 08:45:11;;;;;;;5.05;4.55;;;22.70;99.90;;;;;;6223117;23;20042;-93
2021/07/04 08:47:59;;;;;;;6.80;4.47;;;22.70;99.90;;;;;;6244872;23;20080;-91
2021/07/04 08:50:46;;;;;;;3.97;3.60;;;23.20;99.90;;;;;;6223883;23;20082;-92
2021/07/04 08:53:34;;;;;;;5.57;4.82;;;24.50;99.80;;;;;;6244407;23;20020;-92
2021/07/04 08:56:21;;;;;;;6.82;4.55;;;24.50;96.90;;;;;;6203230;23;20035;-93
2021/07/04 08:59:08;;;;;;;5.32;4.82;;;24.60;96.70;;;;;;6243705;23;20035;-92
2021/07/04 09:01:58;;;;;;;9.15;5.43;;;24.40;96.90;;;;;;6226085;23;20556;-92
2021/07/04 09:05:02;;;;;;;6.15;4.85;;;24.20;96.60;;;;;;6242984;22;20042;-91
2021/07/04 09:07:50;;;;;;;5.68;3.90;;;23.80;97.10;;;;;;6275751;22;20043;-92
2021/07/04 09:10:38;;;;;;;4.70;4.00;;;23.40;98.50;;;;;;6275116;22;20051;-92
2021/07/04 09:13:27;;;;;;;4.97;4.47;;;23.10;99.50;;;;;;6252920;22;20024;-92
2021/07/04 09:16:21;;;;;;;8.05;4.78;;;22.40;99.90;;;;;;6277229;22;20035;-91
2021/07/04 09:19:10;;;;;;;5.03;4.50;;;22.00;99.90;;;;;;6277040;22;20024;-91
2021/07/04 09:22:07;;;;;;;6.93;4.88;;;22.20;99.90;;;;;;6276851;22;20322;-90
2021/07/04 09:25:27;;;;;;;5.22;4.72;;;22.10;99.90;;;;;;6276241;22;20098;-90
2021/07/04 09:28:22;;;;;;;6.70;4.70;;;22.20;99.90;;;;;;6275870;22;20027;-89
2021/07/04 09:31:18;;;;;;;7.20;4.97;;;22.40;99.90;;;;;;6277418;22;20117;-89
2021/07/04 09:34:11;;;;;;;5.32;4.75;;;22.50;99.90;;;;;;6273567;22;20048;-91
2021/07/04 09:36:58;;;;;;;;;;;23.00;99.90;;;;;;6272944;22;20028;-91
2021/07/04 09:39:48;;;;;;;7.13;5.00;;;23.20;99.90;;;;;;6273943;22;19915;-92
2021/07/04 09:43:08;;;;;;;6.93;4.95;;;23.60;99.90;;;;;;6273950;22;20482;-92
2021/07/04 09:46:06;;;;;;;7.43;4.32;;;23.40;99.90;;;;;;6271695;22;20419;-92
2021/07/04 09:49:32;;;;;;;7.75;4.63;;;23.80;99.20;;;;;;6275352;22;20028;-92
2021/07/04 09:52:25;;;;;;;5.85;4.18;;;24.50;97.10;;;;;;6275627;22;20031;-91
2021/07/04 09:55:29;;;;;;;6.13;3.40;;;24.20;94.00;;;;;;6276146;22;20032;-91
2021/07/04 09:58:36;;;;;;;3.90;3.60;;;24.50;93.40;;;;;;6272413;22;20070;-91
2021/07/04 10:01:37;;;;;;;4.65;3.40;;;25.20;91.00;;;;;;6274371;22;20031;-92
2021/07/04 10:04:46;;;;;;;;;;;;;;;;;;;;;
2021/07/04 10:08:12;;;;;;;;;;;;;;;;;;;;;
2021/07/04 10:11:13;;;;;;;4.32;3.92;;;25.90;90.10;;;;;;6279417;22;20024;-91
2021/07/04 10:14:04;;;;;;;5.35;4.05;;;25.60;81.90;;;;;;6273236;22;20019;-92
2021/07/04 10:16:54;;;;;;;4.22;3.85;;;24.10;91.30;;;;;;6274339;22;20464;-92
2021/07/04 10:19:42;;;;;;;4.20;3.80;;;23.30;93.30;;;;;;6274276;22;20051;-90
2021/07/04 10:22:43;;;;;;;6.93;4.47;;;23.00;95.00;;;;;;6274645;22;20028;-91
2021/07/04 10:25:32;;;;;;;5.65;3.65;;;22.80;95.60;;;;;;6276436;22;20024;-94
2021/07/04 10:28:40;;;;;;;4.65;3.83;;;22.80;97.10;;;;;;6273943;22;20034;-91
2021/07/04 10:31:32;;;;;;;5.03;3.78;;;22.50;97.80;;;;;;6272933;22;20030;-90
2021/07/04 10:34:25;;;;;;;6.43;4.82;;;22.10;99.90;;;;;;6274633;22;20031;-92
2021/07/04 10:37:32;;;;;;;4.60;4.03;;;21.90;99.90;;;;;;6275149;22;20041;-91
2021/07/04 10:40:20;;;;;;;4.43;3.95;;;22.00;99.90;;;;;;6273882;22;20062;-92
2021/07/04 10:43:31;;;;;;;4.47;4.07;;;22.10;99.90;;;;;;6277397;22;20312;-92
2021/07/04 10:46:38;;;;;;;4.43;4.03;;;22.30;99.90;;;;;;6273248;22;20102;-93
2021/07/04 10:49:38;;;;;;;5.70;3.83;;;22.30;99.90;;;;;;6277240;22;20039;-91
2021/07/04 10:52:35;;;;;;;4.57;4.05;;;22.30;99.90;;;;;;6274859;22;20089;-93
2021/07/04 10:55:44;;;;;;;5.10;4.60;;;22.50;99.90;;;;;;6275708;22;20027;-92
2021/07/04 10:59:00;;;;;;;4.65;4.13;;;22.20;99.80;;;;;;6277284;22;20023;-91
2021/07/04 11:01:58;;;;;;;4.47;3.72;;;22.30;99.90;;;;;;6277826;22;20085;-91
2021/07/04 11:04:50;;;;;;;4.30;3.90;;;22.30;98.00;;;;;;6274491;22;20043;-92
2021/07/04 11:07:53;;;;;;;4.40;3.92;;;22.70;98.00;;;;;;6271899;22;20102;-91
2021/07/04 11:10:53;;;;;;;5.10;4.40;;;23.00;94.60;;;;;;6272887;22;20115;-93
2021/07/04 11:13:43;;;;;;;3.88;3.58;;;23.30;93.00;;;;;;6276377;22;20113;-93
2021/07/04 11:16:30;;;;;;;4.25;3.78;;;23.40;93.80;;;;;;6277239;22;20020;-93
2021/07/04 11:19:18;;;;;;;3.72;3.42;;;23.80;93.90;;;;;;6275700;22;20174;-93
2021/07/04 11:22:05;;;;;;;3.95;3.53;;;24.30;90.60;;;;;;6251993;22;20200;-92
2021/07/04 11:25:16;;;;;;;5.10;4.60;;;24.60;89.00;;;;;;6276095;22;20383;-92
2021/07/04 11:28:16;;;;;;;4.32;3.92;;;24.20;89.00;;;;;;6272948;22;20360;-93
2021/07/04 11:31:19;;;;;;;4.13;3.70;;;24.10;88.20;;;;;;6273754;22;20023;-93
2021/07/04 11:34:11;;;;;;;3.95;3.60;;;23.90;90.40;;;;;;6275015;22;20030;-93
2021/07/04 11:36:58;;;;;;;5.63;4.13;;;23.60;90.90;;;;;;6276880;22;20377;-92
2021/07/04 11:39:58;;;;;;;5.35;4.32;;;23.10;92.90;;;;;;6276255;22;20027;-92
2021/07/04 11:42:48;;;;;;;8.65;4.65;;;22.80;94.60;;;;;;6274029;22;20027;-92
2021/07/04 11:45:37;;;;;;;5.30;4.80;;;22.50;95.60;;;;;;6275601;22;20050;-91
2021/07/04 11:48:48;;;;;;;5.20;4.38;;;22.20;96.80;;;;;;6274017;22;20023;-92
2021/07/04 11:51:47;;;;;;;5.22;4.63;;;21.90;99.00;;;;;;6277231;22;20051;-92
2021/07/04 11:54:35;;;;;;;6.03;5.10;;;21.90;99.40;;;;;;6271553;22;20039;-92
2021/07/04 11:57:31;;;;;;;6.95;5.70;;;21.70;99.70;;;;;;6254273;22;20108;-91
2021/07/04 12:00:29;;;;;;;5.63;5.07;;;21.80;99.90;;;;;;6274423;22;20024;-93
2021/07/04 12:03:22;;;;;;;6.90;4.53;;;21.80;99.90;;;;;;6275305;22;20096;-91
2021/07/04 12:06:09;;;;;;;4.75;4.25;;;22.00;99.90;;;;;;6273548;22;20020;-91
2021/07/04 12:09:03;;;;;;;5.35;4.85;;;22.40;99.90;;;;;;6256158;22;20023;-92
2021/07/04 12:11:52;;;;;;;9.10;5.97;;;22.90;99.30;;;;;;6270760;22;20031;-92
2021/07/04 12:14:44;;;;;;;5.18;4.68;;;23.40;98.50;;;;;;6271147;22;20067;-92
2021/07/04 12:17:39;;;;;;;9.98;7.70;;;23.40;97.40;;;;;;6271162;22;20406;-91
2021/07/04 12:20:29;;;;;;;7.25;4.75;;;23.80;96.90;;;;;;6271139;22;20034;-94
2021/07/04 12:23:16;;;;;;;4.05;3.50;;;24.40;96.30;;;;;;6274611;22;20248;-91
2021/07/04 12:26:07;;;;;;;5.03;3.65;;;25.00;91.10;;;;;;6272592;22;20020;-88
2021/07/04 12:29:03;;;;;;;3.72;3.30;;;25.40;90.30;;;;;;6273865;22;20020;-93
2021/07/04 12:32:01;;;;;;;2.25;2.05;;;26.40;87.20;;;;;;6271563;22;20032;-91
2021/07/04 12:34:52;;;;;;;2.53;2.10;;;26.60;73.80;;;;;;6271271;22;20020;-93
2021/07/04 12:37:42;;;;;;;2.35;2.15;;;26.80;71.10;;;;;;6254067;22;20127;-92
2021/07/04 12:40:58;;;;;;;2.22;2.10;;;27.60;68.40;;;;;;6272618;22;20085;-94
2021/07/04 12:43:50;;;;;;;1.95;1.83;;;27.60;69.90;;;;;;6272596;22;20032;-92
2021/07/04 12:46:40;;;;;;;2.55;1.92;;;27.90;66.10;;;;;;6273007;22;20024;-92
2021/07/04 12:49:28;;;;;;;2.50;2.30;;;27.30;66.50;;;;;;6272597;22;20024;-93
2021/07/04 12:52:16;;;;;;;19.23;10.25;;;26.60;69.80;;;;;;6277178;22;20035;-93
2021/07/04 12:55:05;;;;;;;2.22;2.00;;;27.00;70.40;;;;;;6273879;22;20019;-92
2021/07/04 12:57:52;;;;;;;6.03;3.85;;;27.40;64.20;;;;;;6274388;22;20387;-92
2021/07/04 13:00:42;;;;;;;5.63;4.03;;;27.70;63.90;;;;;;6273115;22;20030;-92
2021/07/04 13:03:44;;;;;;;9.20;5.88;;;27.40;62.80;;;;;;6272064;22;20098;-93
2021/07/04 13:06:52;;;;;;;2.20;2.00;;;27.10;62.80;;;;;;6273457;22;20878;-94
2021/07/04 13:09:44;;;;;;;3.95;3.55;;;27.90;62.20;;;;;;6272815;22;20024;-94
2021/07/04 13:12:37;;;;;;;3.60;3.00;;;27.30;63.20;;;;;;6272151;22;20020;-92
2021/07/04 13:15:25;;;;;;;3.80;2.90;;;26.00;66.10;;;;;;6273705;22;20031;-94
2021/07/04 13:18:30;;;;;;;5.45;4.15;;;25.80;67.60;;;;;;6249439;22;20138;-89
2021/07/04 13:21:30;;;;;;;4.60;2.70;;;25.10;69.20;;;;;;6274045;22;20028;-91
2021/07/04 13:24:20;;;;;;;14.57;8.00;;;24.80;73.40;;;;;;6276002;22;20300;-89
2021/07/04 13:27:17;;;;;;;37.60;17.42;;;24.80;75.30;;;;;;6273954;22;20039;-90
2021/07/04 13:30:10;;;;;;;24.83;13.25;;;25.50;72.30;;;;;;6281685;22;20030;-92
2021/07/04 13:33:02;;;;;;;8.88;6.07;;;26.00;70.50;;;;;;6276931;22;20094;-92
2021/07/04 13:35:52;;;;;;;8.88;6.05;;;26.20;69.60;;;;;;6277568;22;20104;-91
2021/07/04 13:38:59;;;;;;;3.65;2.95;;;26.20;70.40;;;;;;6274143;22;20163;-91
2021/07/04 13:41:47;;;;;;;4.13;3.60;;;25.90;69.70;;;;;;6275807;22;20049;-93
2021/07/04 13:44:52;;;;;;;3.10;2.80;;;25.20;73.90;;;;;;6273065;22;20582;-94
2021/07/04 13:47:42;;;;;;;6.38;5.03;;;25.00;78.50;;;;;;6275294;22;20034;-93
2021/07/04 13:50:31;;;;;;;2.55;1.88;;;25.10;75.60;;;;;;6271946;22;20109;-91
2021/07/04 13:53:24;;;;;;;2.40;2.20;;;25.20;74.40;;;;;;6275860;22;20174;-92
2021/07/04 13:56:26;;;;;;;2.47;2.28;;;25.40;73.10;;;;;;6275618;22;20548;-93
2021/07/04 13:59:23;;;;;;;3.65;2.80;;;25.90;81.10;;;;;;6272305;22;20035;-94
2021/07/04 14:02:18;;;;;;;3.30;3.00;;;26.00;78.40;;;;;;6273798;22;20031;-92
2021/07/04 14:05:06;;;;;;;4.25;2.55;;;25.90;81.40;;;;;;6272668;22;20066;-94
2021/07/04 14:07:57;;;;;;;2.75;2.50;;;25.80;83.20;;;;;;6269966;22;20024;-94
2021/07/04 14:10:48;;;;;;;2.65;2.45;;;25.90;81.70;;;;;;6272389;22;20023;-93
2021/07/04 14:13:35;;;;;;;6.68;2.47;;;25.80;81.40;;;;;;6273035;22;20023;-93
2021/07/04 14:16:25;;;;;;;2.67;2.28;;;25.50;83.00;;;;;;6272121;22;20027;-92
2021/07/04 14:19:28;;;;;;;;;;;;;;;;;;;;;
2021/07/04 14:22:19;;;;;;;2.40;2.05;;;25.20;86.50;;;;;;6279061;22;20020;-93
2021/07/04 14:25:16;;;;;;;2.78;2.30;;;25.30;80.80;;;;;;6279886;22;20034;-93
2021/07/04 14:28:25;;;;;;;2.50;2.20;;;25.20;85.60;;;;;;6275874;22;20019;-92
2021/07/04 14:31:30;;;;;;;2.90;2.35;;;25.30;80.10;;;;;;6275749;22;20033;-90
2021/07/04 14:34:39;;;;;;;1.85;1.65;;;25.20;86.40;;;;;;6273120;22;20308;-90
2021/07/04 14:38:07;;;;;;;1.83;1.73;;;25.20;75.10;;;;;;6271031;22;20035;-92
2021/07/04 14:41:15;;;;;;;2.10;1.90;;;25.30;78.10;;;;;;6182647;23;20028;-93
2021/07/04 14:44:06;;;;;;;2.50;1.92;;;25.60;74.50;;;;;;6241393;23;20089;-91
2021/07/04 14:47:05;;;;;;;2.13;1.90;;;25.80;82.70;;;;;;6240571;23;20751;-94
2021/07/04 14:50:16;;;;;;;3.17;2.20;;;26.40;74.20;;;;;;6216890;23;20024;-93
2021/07/04 14:53:23;;;;;;;3.13;1.92;;;26.80;74.70;;;;;;6217293;23;20024;-92
2021/07/04 14:56:41;;;;;;;2.00;1.80;;;26.90;72.50;;;;;;6220538;23;20444;-91